Time;durP1;ratioP1;P1;durP2;ratioP2;P2;SDS_P1;SDS_P2;PMS_P1;PMS_P2;Temp;Humidity;BMP_temperature;BMP_pressure;BME280_temperature;BME280_humidity;BME280_pressure;Samples;Min_cycle;Max_cycle;Signal;HPM_P1;HPM_P2
2022/05/13 00:02:21;;;;;;;9.88;1.90;;;;;;;;;;4986369;28;20133;-80
2022/05/13 00:04:48;;;;;;;5.40;2.15;;;;;;;;;;5002370;22;21825;-80
2022/05/13 00:07:15;;;;;;;11.10;2.15;;;;;;;;;;5011604;28;20082;-80
2022/05/13 00:09:59;;;;;;;7.50;2.00;;;;;;;;;;4992330;28;20050;-81
2022/05/13 00:12:28;;;;;;;4.00;1.52;;;;;;;;;;4993830;28;20136;-80
2022/05/13 00:14:55;;;;;;;4.75;1.63;;;;;;;;;;4994678;28;20099;-80
2022/05/13 00:17:23;;;;;;;17.33;2.00;;;;;;;;;;5012114;28;20502;-80
2022/05/13 00:19:51;;;;;;;11.27;1.90;;;;;;;;;;5012678;28;20049;-80
2022/05/13 00:22:19;;;;;;;10.30;1.85;;;;;;;;;;5012282;28;20045;-80
2022/05/13 00:24:53;;;;;;;13.07;2.05;;;;;;;;;;5012173;28;20057;-80
2022/05/13 00:27:21;;;;;;;9.52;2.20;;;;;;;;;;5011813;28;20058;-80
2022/05/13 00:29:48;;;;;;;6.93;2.83;;;;;;;;;;4994711;28;20050;-80
2022/05/13 00:32:16;;;;;;;8.52;2.28;;;;;;;;;;4994498;28;20057;-80
2022/05/13 00:34:43;;;;;;;8.40;2.17;;;;;;;;;;5012068;28;20540;-80
2022/05/13 00:37:11;;;;;;;9.52;2.30;;;;;;;;;;5012063;28;20085;-80
2022/05/13 00:39:38;;;;;;;11.55;2.17;;;;;;;;;;4995309;28;20054;-80
2022/05/13 00:42:09;;;;;;;7.03;1.80;;;;;;;;;;5009960;28;20069;-80
2022/05/13 00:44:36;;;;;;;5.75;1.95;;;;;;;;;;4987822;28;20124;-80
2022/05/13 00:47:04;;;;;;;8.63;2.60;;;;;;;;;;5005206;28;20142;-80
2022/05/13 00:49:32;;;;;;;7.05;1.90;;;;;;;;;;5006194;28;20064;-80
2022/05/13 00:52:00;;;;;;;8.23;2.10;;;;;;;;;;5011511;28;20108;-80
2022/05/13 00:54:28;;;;;;;7.72;2.10;;;;;;;;;;5011793;28;20089;-80
2022/05/13 00:56:57;;;;;;;10.30;2.20;;;;;;;;;;5011682;28;20741;-80
2022/05/13 00:59:26;;;;;;;11.63;2.40;;;;;;;;;;5011797;28;20081;-81
2022/05/13 01:01:53;;;;;;;8.38;3.47;;;;;;;;;;4994155;28;20081;-80
2022/05/13 01:04:21;;;;;;;5.65;2.40;;;;;;;;;;5012099;28;20137;-81
2022/05/13 01:06:50;;;;;;;5.95;2.85;;;;;;;;;;4994106;28;20057;-80
2022/05/13 01:09:18;;;;;;;10.05;2.08;;;;;;;;;;4994265;28;20168;-81
2022/05/13 01:11:46;;;;;;;6.50;1.95;;;;;;;;;;4994060;28;20129;-80
2022/05/13 01:14:19;;;;;;;7.22;1.98;;;;;;;;;;4993813;28;20138;-81
2022/05/13 01:19:32;;;;;;;5.25;2.35;;;;;;;;;;5010747;28;20145;-80
2022/05/13 01:22:11;;;;;;;8.68;2.33;;;;;;;;;;5010496;28;20134;-81
2022/05/13 01:24:38;;;;;;;6.35;2.05;;;;;;;;;;4993468;28;20081;-81
2022/05/13 01:27:06;;;;;;;7.47;2.33;;;;;;;;;;4993698;28;20145;-81
2022/05/13 01:29:33;;;;;;;8.60;2.00;;;;;;;;;;4994269;28;20089;-81
2022/05/13 01:32:00;;;;;;;6.53;2.50;;;;;;;;;;5011461;28;20113;-81
2022/05/13 01:34:27;;;;;;;9.85;2.28;;;;;;;;;;4994066;28;20136;-81
2022/05/13 01:36:55;;;;;;;9.82;2.30;;;;;;;;;;5011489;28;20144;-81
2022/05/13 01:39:22;;;;;;;7.63;2.15;;;;;;;;;;5011148;28;20542;-81
2022/05/13 01:41:49;;;;;;;6.78;2.15;;;;;;;;;;5011037;28;20073;-82
2022/05/13 01:44:16;;;;;;;9.68;2.15;;;;;;;;;;4994002;28;20108;-81
2022/05/13 01:46:43;;;;;;;11.93;2.60;;;;;;;;;;4993583;28;20077;-82
2022/05/13 01:49:11;;;;;;;4.45;2.22;;;;;;;;;;5011723;28;20058;-81
2022/05/13 01:51:38;;;;;;;6.05;1.88;;;;;;;;;;4993646;28;20144;-81
2022/05/13 01:54:06;;;;;;;8.48;2.30;;;;;;;;;;4993313;28;20136;-81
2022/05/13 01:56:33;;;;;;;7.07;2.10;;;;;;;;;;4993942;28;20088;-82
2022/05/13 01:59:00;;;;;;;7.70;1.92;;;;;;;;;;5009917;28;20111;-81
2022/05/13 02:01:27;;;;;;;5.65;1.83;;;;;;;;;;4992921;28;20089;-82
2022/05/13 02:03:55;;;;;;;4.88;1.85;;;;;;;;;;5010681;28;20050;-82
2022/05/13 02:06:26;;;;;;;9.27;2.42;;;;;;;;;;5010564;28;20046;-81
2022/05/13 02:08:54;;;;;;;9.63;1.83;;;;;;;;;;5011074;28;20720;-81
2022/05/13 02:11:23;;;;;;;9.57;2.45;;;;;;;;;;5010727;28;20137;-81
2022/05/13 02:13:51;;;;;;;6.07;1.92;;;;;;;;;;5001042;28;20734;-81
2022/05/13 02:16:19;;;;;;;5.13;1.70;;;;;;;;;;5012858;28;20076;-81
2022/05/13 02:18:46;;;;;;;13.63;2.38;;;;;;;;;;5008379;28;20042;-81
2022/05/13 02:21:14;;;;;;;9.90;2.20;;;;;;;;;;4994589;28;20132;-82
2022/05/13 02:23:41;;;;;;;3.88;1.65;;;;;;;;;;5013873;28;20127;-81
2022/05/13 02:26:10;;;;;;;9.02;1.92;;;;;;;;;;5010040;28;20050;-81
2022/05/13 02:28:38;;;;;;;9.52;2.00;;;;;;;;;;5000676;28;20099;-81
2022/05/13 02:31:05;;;;;;;9.85;2.13;;;;;;;;;;5010736;28;20084;-81
2022/05/13 02:33:34;;;;;;;8.35;2.05;;;;;;;;;;4989269;28;20073;-81
2022/05/13 02:36:02;;;;;;;7.47;1.90;;;;;;;;;;4992355;28;20104;-81
2022/05/13 02:38:30;;;;;;;4.35;2.70;;;;;;;;;;4993353;28;20100;-81
2022/05/13 02:41:12;;;;;;;9.68;2.40;;;;;;;;;;4998847;28;20466;-82
2022/05/13 02:43:42;;;;;;;8.45;2.38;;;;;;;;;;5008335;28;20121;-82
2022/05/13 02:46:09;;;;;;;5.57;1.83;;;;;;;;;;5000520;28;20046;-82
2022/05/13 02:48:37;;;;;;;8.85;1.75;;;;;;;;;;4997834;28;20084;-82
2022/05/13 02:51:04;;;;;;;9.88;2.65;;;;;;;;;;5007775;28;20085;-82
2022/05/13 02:53:31;;;;;;;7.43;1.95;;;;;;;;;;5010130;28;20147;-82
2022/05/13 02:55:59;;;;;;;7.97;2.03;;;;;;;;;;5017460;28;20136;-82
2022/05/13 02:58:26;;;;;;;9.45;2.13;;;;;;;;;;5010611;28;20085;-82
2022/05/13 03:00:53;;;;;;;9.48;2.30;;;;;;;;;;4985793;28;20077;-82
2022/05/13 03:03:20;;;;;;;8.98;2.05;;;;;;;;;;5001670;28;20042;-82
2022/05/13 03:05:48;;;;;;;15.20;2.42;;;;;;;;;;5005000;28;20462;-82
2022/05/13 03:08:15;;;;;;;10.88;2.88;;;;;;;;;;5009106;28;20073;-82
2022/05/13 03:10:42;;;;;;;10.20;2.20;;;;;;;;;;4996576;28;20144;-82
2022/05/13 03:13:10;;;;;;;7.35;2.42;;;;;;;;;;5009263;28;20108;-82
2022/05/13 03:15:37;;;;;;;7.35;2.25;;;;;;;;;;4991809;28;20486;-83
2022/05/13 03:18:05;;;;;;;20.70;2.17;;;;;;;;;;5008689;28;20104;-83
2022/05/13 03:20:32;;;;;;;8.52;2.40;;;;;;;;;;4997604;28;20128;-82
2022/05/13 03:22:59;;;;;;;7.57;2.13;;;;;;;;;;4988345;28;20054;-82
2022/05/13 03:25:26;;;;;;;10.77;2.83;;;;;;;;;;5014459;28;20042;-82
2022/05/13 03:27:54;;;;;;;8.35;2.05;;;;;;;;;;4995299;28;20128;-82
2022/05/13 03:30:22;;;;;;;7.22;2.20;;;;;;;;;;5021389;28;20081;-82
2022/05/13 03:32:50;;;;;;;6.60;2.42;;;;;;;;;;5016938;28;20045;-82
2022/05/13 03:35:19;;;;;;;3.42;2.30;;;;;;;;;;4998788;28;20050;-82
2022/05/13 03:37:47;;;;;;;6.22;2.05;;;;;;;;;;5016971;28;20506;-82
2022/05/13 03:40:16;;;;;;;6.03;2.42;;;;;;;;;;5017380;28;20069;-82
2022/05/13 03:42:43;;;;;;;12.32;2.63;;;;;;;;;;5006554;28;20525;-82
2022/05/13 03:45:11;;;;;;;7.05;2.70;;;;;;;;;;5011230;28;20141;-82
2022/05/13 03:47:38;;;;;;;5.55;2.17;;;;;;;;;;4997918;28;20733;-81
2022/05/13 03:50:07;;;;;;;12.50;2.15;;;;;;;;;;5012761;28;20093;-81
2022/05/13 03:52:35;;;;;;;12.77;3.58;;;;;;;;;;5009496;28;20046;-81
2022/05/13 03:55:02;;;;;;;7.45;2.67;;;;;;;;;;5007288;28;20054;-82
2022/05/13 03:57:29;;;;;;;8.95;2.30;;;;;;;;;;5013428;28;20085;-82
2022/05/13 03:59:57;;;;;;;14.27;2.80;;;;;;;;;;5001643;28;20137;-81
2022/05/13 04:02:25;;;;;;;5.50;2.17;;;;;;;;;;4995247;28;20041;-82
2022/05/13 04:10:24;;;;;;;11.00;2.80;;;;;;;;;;5013846;28;20081;-82
2022/05/13 04:18:23;;;;;;;8.93;3.15;;;;;;;;;;5012592;28;20796;-81
2022/05/13 04:20:50;;;;;;;7.75;2.25;;;;;;;;;;5009703;28;20699;-81
2022/05/13 04:23:18;;;;;;;11.85;2.80;;;;;;;;;;4982789;28;20196;-81
2022/05/13 04:25:46;;;;;;;4.68;2.45;;;;;;;;;;4986110;28;20654;-82
2022/05/13 04:28:13;;;;;;;9.25;2.63;;;;;;;;;;5012270;28;20133;-81
2022/05/13 04:30:40;;;;;;;9.65;3.28;;;;;;;;;;5005645;28;20453;-82
2022/05/13 04:33:07;;;;;;;9.32;2.72;;;;;;;;;;5008804;28;20057;-82
2022/05/13 04:35:35;;;;;;;10.02;2.38;;;;;;;;;;4998283;28;20042;-81
2022/05/13 04:38:02;;;;;;;12.27;2.38;;;;;;;;;;5011987;28;20143;-81
2022/05/13 04:40:29;;;;;;;7.18;2.85;;;;;;;;;;5008232;28;20077;-81
2022/05/13 04:42:57;;;;;;;14.20;3.03;;;;;;;;;;5007863;28;20145;-81
2022/05/13 04:45:26;;;;;;;15.27;2.95;;;;;;;;;;5019804;28;20563;-81
2022/05/13 04:50:49;;;;;;;8.30;2.40;;;;;;;;;;5024090;28;20720;-81
2022/05/13 04:53:21;;;;;;;17.90;3.28;;;;;;;;;;5001253;28;20045;-82
2022/05/13 04:55:48;;;;;;;7.55;2.35;;;;;;;;;;4997698;28;20145;-82
2022/05/13 04:58:16;;;;;;;17.30;2.92;;;;;;;;;;5013569;28;20128;-83
2022/05/13 05:00:43;;;;;;;12.48;2.97;;;;;;;;;;5005478;28;20108;-81
2022/05/13 05:03:11;;;;;;;5.97;2.63;;;;;;;;;;5018904;28;20081;-82
2022/05/13 05:05:38;;;;;;;8.60;2.85;;;;;;;;;;4993453;28;20089;-83
2022/05/13 05:08:05;;;;;;;10.70;3.15;;;;;;;;;;4991811;28;20094;-83
2022/05/13 05:10:33;;;;;;;8.95;2.55;;;;;;;;;;5011129;28;20054;-79
2022/05/13 05:13:00;;;;;;;18.70;2.78;;;;;;;;;;5010831;28;20576;-80
2022/05/13 05:15:27;;;;;;;18.23;2.78;;;;;;;;;;5010382;28;20050;-82
2022/05/13 05:17:55;;;;;;;7.15;2.40;;;;;;;;;;4993236;28;20058;-81
2022/05/13 05:20:22;;;;;;;9.88;2.67;;;;;;;;;;4993250;28;20650;-80
2022/05/13 05:22:50;;;;;;;10.27;2.60;;;;;;;;;;4994367;28;20100;-82
2022/05/13 05:25:19;;;;;;;12.20;2.70;;;;;;;;;;5011560;28;20050;-79
2022/05/13 05:27:46;;;;;;;11.73;3.42;;;;;;;;;;5011004;28;20415;-81
2022/05/13 05:30:14;;;;;;;7.30;2.28;;;;;;;;;;5010887;28;20085;-80
2022/05/13 05:32:42;;;;;;;9.93;2.08;;;;;;;;;;4994059;28;20128;-82
2022/05/13 05:35:11;;;;;;;12.55;2.85;;;;;;;;;;5011148;28;20053;-79
2022/05/13 05:37:38;;;;;;;7.80;2.38;;;;;;;;;;5012772;28;20077;-81
2022/05/13 05:40:06;;;;;;;5.95;2.25;;;;;;;;;;4998005;28;20145;-82
2022/05/13 05:42:33;;;;;;;9.98;3.05;;;;;;;;;;5009071;28;20056;-81
2022/05/13 05:45:01;;;;;;;8.77;2.80;;;;;;;;;;4987184;28;20081;-80
2022/05/13 05:47:28;;;;;;;10.80;2.67;;;;;;;;;;4997039;28;20050;-80
2022/05/13 05:49:55;;;;;;;14.80;2.28;;;;;;;;;;4989387;28;20050;-80
2022/05/13 05:52:22;;;;;;;6.60;2.40;;;;;;;;;;4989517;28;20046;-80
2022/05/13 05:57:36;;;;;;;11.88;2.33;;;;;;;;;;5010626;28;20209;-81
2022/05/13 06:00:05;;;;;;;9.45;2.72;;;;;;;;;;5010394;28;20732;-81
2022/05/13 06:02:34;;;;;;;16.48;2.70;;;;;;;;;;4990992;28;20397;-81
2022/05/13 06:05:01;;;;;;;5.35;2.00;;;;;;;;;;4995611;28;20057;-80
2022/05/13 06:07:28;;;;;;;11.10;3.05;;;;;;;;;;4984716;28;20139;-80
2022/05/13 06:09:56;;;;;;;11.90;2.35;;;;;;;;;;4984359;28;20050;-80
2022/05/13 06:12:23;;;;;;;14.88;2.92;;;;;;;;;;5002883;28;20141;-80
2022/05/13 06:14:50;;;;;;;11.32;3.08;;;;;;;;;;4991771;28;20494;-80
2022/05/13 06:17:17;;;;;;;11.98;2.35;;;;;;;;;;4991779;28;20108;-80
2022/05/13 06:19:45;;;;;;;14.10;3.22;;;;;;;;;;5010131;28;20088;-80
2022/05/13 06:22:12;;;;;;;10.65;2.90;;;;;;;;;;4994282;28;20085;-80
2022/05/13 06:24:39;;;;;;;14.45;2.92;;;;;;;;;;5003137;28;20072;-79
2022/05/13 06:27:09;;;;;;;14.80;3.47;;;;;;;;;;4999842;28;20054;-80
2022/05/13 06:29:36;;;;;;;8.35;2.90;;;;;;;;;;4991406;28;20053;-80
2022/05/13 06:32:04;;;;;;;6.30;2.25;;;;;;;;;;4991896;28;20054;-83
2022/05/13 06:34:32;;;;;;;8.30;2.75;;;;;;;;;;5010155;28;20053;-82
2022/05/13 06:36:59;;;;;;;11.23;2.53;;;;;;;;;;4993319;28;20088;-82
2022/05/13 06:39:26;;;;;;;9.48;2.22;;;;;;;;;;5010144;28;20134;-82
2022/05/13 06:41:54;;;;;;;20.70;3.88;;;;;;;;;;5010066;28;20078;-82
2022/05/13 06:44:21;;;;;;;11.27;2.45;;;;;;;;;;4992085;28;20128;-82
2022/05/13 06:46:49;;;;;;;12.50;2.55;;;;;;;;;;4992116;28;20076;-82
2022/05/13 06:49:16;;;;;;;16.15;2.10;;;;;;;;;;4992950;28;20104;-82
2022/05/13 06:51:43;;;;;;;13.93;2.30;;;;;;;;;;4992397;28;20503;-82
2022/05/13 06:54:11;;;;;;;7.22;2.35;;;;;;;;;;5009720;28;20081;-83
2022/05/13 06:56:41;;;;;;;10.25;2.28;;;;;;;;;;4990898;28;20061;-81
2022/05/13 06:59:09;;;;;;;12.20;2.00;;;;;;;;;;4989224;28;20038;-81
2022/05/13 07:01:40;;;;;;;8.88;2.10;;;;;;;;;;5009274;28;21383;-82
2022/05/13 07:04:07;;;;;;;14.85;2.58;;;;;;;;;;5001350;28;20153;-82
2022/05/13 07:06:34;;;;;;;10.55;2.67;;;;;;;;;;5005327;28;20045;-82
2022/05/13 07:09:01;;;;;;;5.53;1.92;;;;;;;;;;5007253;28;20054;-83
2022/05/13 07:11:29;;;;;;;12.13;2.20;;;;;;;;;;4994878;28;20789;-78
2022/05/13 07:13:56;;;;;;;10.27;2.28;;;;;;;;;;4998117;28;20133;-82
2022/05/13 07:16:23;;;;;;;13.50;2.97;;;;;;;;;;5008394;28;20082;-82
2022/05/13 07:18:51;;;;;;;13.43;3.72;;;;;;;;;;4986022;28;20045;-79
2022/05/13 07:21:18;;;;;;;7.78;2.30;;;;;;;;;;5003317;28;20050;-79
2022/05/13 07:23:45;;;;;;;31.23;3.15;;;;;;;;;;4990265;28;20121;-78
2022/05/13 07:26:13;;;;;;;13.73;2.85;;;;;;;;;;4981207;28;20054;-79
2022/05/13 07:28:40;;;;;;;13.20;2.80;;;;;;;;;;4989927;28;20089;-79
2022/05/13 07:31:07;;;;;;;12.38;2.47;;;;;;;;;;4991555;28;20243;-78
2022/05/13 07:33:35;;;;;;;14.02;2.70;;;;;;;;;;4992788;28;20490;-78
2022/05/13 07:36:03;;;;;;;12.18;2.92;;;;;;;;;;5007747;28;20053;-78
2022/05/13 07:38:31;;;;;;;11.30;3.00;;;;;;;;;;4989659;28;20057;-78
2022/05/13 07:41:17;;;;;;;9.20;2.78;;;;;;;;;;4990574;28;20077;-78
2022/05/13 07:43:45;;;;;;;19.33;2.92;;;;;;;;;;5009596;28;20490;-78
2022/05/13 07:46:13;;;;;;;13.35;3.08;;;;;;;;;;4999591;28;20752;-79
2022/05/13 07:48:41;;;;;;;12.95;3.03;;;;;;;;;;5001392;28;20060;-76
2022/05/13 07:51:09;;;;;;;8.52;2.50;;;;;;;;;;5001678;28;20057;-77
2022/05/13 07:53:37;;;;;;;23.90;3.60;;;;;;;;;;4998927;28;20683;-77
2022/05/13 07:56:04;;;;;;;8.10;2.70;;;;;;;;;;4980259;28;20120;-77
2022/05/13 07:58:31;;;;;;;13.93;3.10;;;;;;;;;;4996231;28;20147;-77
2022/05/13 08:00:59;;;;;;;10.18;3.03;;;;;;;;;;4986889;28;20533;-77
2022/05/13 08:03:27;;;;;;;18.02;2.92;;;;;;;;;;4985687;28;20654;-77
2022/05/13 08:05:57;;;;;;;40.67;5.55;;;;;;;;;;5002928;28;20057;-77
2022/05/13 08:08:29;;;;;;;25.13;5.18;;;;;;;;;;4998694;28;20619;-77
2022/05/13 08:10:59;;;;;;;17.23;4.25;;;;;;;;;;5006647;28;20084;-77
2022/05/13 08:13:30;;;;;;;10.52;3.03;;;;;;;;;;5008327;28;20081;-77
2022/05/13 08:15:58;;;;;;;12.45;3.42;;;;;;;;;;4989308;28;20481;-77
2022/05/13 08:18:25;;;;;;;12.20;4.55;;;;;;;;;;5001113;28;20085;-76
2022/05/13 08:20:53;;;;;;;12.85;3.00;;;;;;;;;;4996222;28;20132;-77
2022/05/13 08:23:21;;;;;;;25.38;3.47;;;;;;;;;;4992320;28;20149;-76
2022/05/13 08:25:49;;;;;;;15.00;3.28;;;;;;;;;;4991940;28;20062;-77
2022/05/13 08:28:17;;;;;;;15.20;3.22;;;;;;;;;;4992936;28;20049;-77
2022/05/13 08:30:45;;;;;;;8.00;3.38;;;;;;;;;;4991740;28;20045;-77
2022/05/13 08:33:12;;;;;;;14.85;2.95;;;;;;;;;;4990847;28;20131;-76
2022/05/13 08:35:41;;;;;;;8.35;3.25;;;;;;;;;;5000836;28;20137;-76
2022/05/13 08:38:09;;;;;;;15.10;3.00;;;;;;;;;;5001071;28;20493;-76
2022/05/13 08:40:54;;;;;;;12.43;3.28;;;;;;;;;;4992494;28;20073;-76
2022/05/13 08:43:24;;;;;;;19.38;3.72;;;;;;;;;;4989844;28;20104;-76
2022/05/13 08:46:00;;;;;;;13.30;3.25;;;;;;;;;;5007593;28;20145;-76
2022/05/13 08:48:40;;;;;;;8.55;3.05;;;;;;;;;;4993659;28;20057;-76
2022/05/13 08:51:13;;;;;;;12.90;3.42;;;;;;;;;;4996600;28;20058;-76
2022/05/13 08:53:50;;;;;;;19.42;3.35;;;;;;;;;;5001850;28;20160;-75
2022/05/13 08:56:22;;;;;;;19.98;3.85;;;;;;;;;;5003317;28;20842;-77
2022/05/13 08:58:57;;;;;;;7.30;2.65;;;;;;;;;;5004310;28;20127;-78
2022/05/13 09:01:27;;;;;;;11.57;3.17;;;;;;;;;;4990666;28;20050;-78
2022/05/13 09:03:56;;;;;;;12.80;3.22;;;;;;;;;;4989882;28;20462;-78
2022/05/13 09:06:45;;;;;;;10.80;2.50;;;;;;;;;;4991525;28;20061;-78
2022/05/13 09:09:13;;;;;;;12.82;2.55;;;;;;;;;;5019968;28;20084;-78
2022/05/13 09:11:40;;;;;;;9.55;2.40;;;;;;;;;;4999343;28;20140;-79
2022/05/13 09:14:08;;;;;;;7.57;2.50;;;;;;;;;;4993596;28;20791;-78
2022/05/13 09:16:41;;;;;;;8.23;1.92;;;;;;;;;;5011581;28;20591;-78
2022/05/13 09:19:14;;;;;;;9.38;2.33;;;;;;;;;;5014388;28;20133;-78
2022/05/13 09:21:43;;;;;;;21.27;2.55;;;;;;;;;;4991050;28;20038;-79
2022/05/13 09:24:11;;;;;;;9.20;2.60;;;;;;;;;;5009288;28;20092;-79
2022/05/13 09:26:38;;;;;;;5.30;2.25;;;;;;;;;;5008995;28;20141;-79
2022/05/13 09:29:07;;;;;;;13.27;3.22;;;;;;;;;;4992191;28;20058;-77
2022/05/13 09:31:37;;;;;;;10.98;2.50;;;;;;;;;;4991987;28;20061;-77
2022/05/13 09:34:18;;;;;;;59.97;5.03;;;;;;;;;;4994394;28;20062;-78
2022/05/13 09:36:47;;;;;;;14.98;2.50;;;;;;;;;;5010202;28;20128;-77
2022/05/13 09:39:20;;;;;;;9.52;2.88;;;;;;;;;;4985741;28;20061;-78
2022/05/13 09:41:52;;;;;;;8.13;2.40;;;;;;;;;;4985274;28;20077;-82
2022/05/13 09:44:37;;;;;;;12.55;2.75;;;;;;;;;;5009088;28;20054;-82
2022/05/13 09:47:10;;;;;;;13.13;2.58;;;;;;;;;;4997490;28;20111;-78
2022/05/13 09:50:00;;;;;;;11.45;2.40;;;;;;;;;;4996405;28;20054;-78
2022/05/13 09:52:34;;;;;;;5.95;2.17;;;;;;;;;;5008378;28;20058;-77
2022/05/13 09:55:14;;;;;;;5.60;2.30;;;;;;;;;;5002760;28;20429;-78
2022/05/13 09:57:42;;;;;;;10.20;2.63;;;;;;;;;;4997907;28;20072;-78
2022/05/13 10:00:15;;;;;;;7.40;1.98;;;;;;;;;;5006266;28;20046;-78
2022/05/13 10:02:44;;;;;;;12.80;2.72;;;;;;;;;;5002347;28;20540;-78
2022/05/13 10:05:15;;;;;;;12.57;3.15;;;;;;;;;;5008330;28;20050;-78
2022/05/13 10:08:06;;;;;;;9.32;3.25;;;;;;;;;;4993984;28;20749;-78
2022/05/13 10:16:14;;;;;;;12.52;2.15;;;;;;;;;;5001479;28;20179;-78
2022/05/13 10:18:53;;;;;;;7.13;2.28;;;;;;;;;;4997102;28;20045;-78
2022/05/13 10:21:24;;;;;;;14.07;2.35;;;;;;;;;;5016555;28;20522;-78
2022/05/13 10:24:09;;;;;;;8.50;2.50;;;;;;;;;;4995775;28;20050;-82
2022/05/13 10:26:37;;;;;;;;;;;;;;;;;;5000907;28;20593;-83
2022/05/13 10:29:07;;;;;;;18.40;2.38;;;;;;;;;;5010472;28;19929;-83
2022/05/13 10:31:41;;;;;;;10.30;2.50;;;;;;;;;;5010371;28;20812;-82
2022/05/13 10:34:14;;;;;;;8.98;2.40;;;;;;;;;;5018592;28;20057;-83
2022/05/13 10:36:47;;;;;;;9.45;2.22;;;;;;;;;;5010374;28;20053;-83
2022/05/13 10:39:19;;;;;;;10.20;2.97;;;;;;;;;;5010835;28;20061;-82
2022/05/13 10:41:49;;;;;;;13.60;2.97;;;;;;;;;;4988317;28;20050;-84
2022/05/13 10:44:21;;;;;;;10.70;3.03;;;;;;;;;;4990143;28;20061;-83
2022/05/13 10:46:53;;;;;;;8.00;2.78;;;;;;;;;;5005480;28;20049;-84
2022/05/13 10:49:39;;;;;;;12.20;2.80;;;;;;;;;;4990694;28;20042;-82
2022/05/13 10:52:11;;;;;;;6.78;3.55;;;;;;;;;;4992041;28;20100;-86
2022/05/13 10:54:54;;;;;;;9.63;2.95;;;;;;;;;;4989323;28;20085;-87
2022/05/13 10:57:27;;;;;;;12.10;2.85;;;;;;;;;;5004820;28;20046;-88
2022/05/13 11:00:01;;;;;;;11.23;3.10;;;;;;;;;;5004524;28;20128;-87
2022/05/13 11:03:01;;;;;;;30.38;3.72;;;;;;;;;;5021393;28;20652;-86
2022/05/13 11:05:47;;;;;;;8.18;3.17;;;;;;;;;;4950416;28;20883;-84
2022/05/13 11:08:18;;;;;;;16.13;3.28;;;;;;;;;;5003231;28;21176;-82
2022/05/13 11:10:51;;;;;;;8.13;2.80;;;;;;;;;;5004192;28;20074;-85
2022/05/13 11:13:37;;;;;;;13.80;3.67;;;;;;;;;;4989747;28;20848;-84
2022/05/13 11:16:15;;;;;;;16.00;3.85;;;;;;;;;;4990838;28;20121;-86
2022/05/13 11:19:06;;;;;;;10.38;3.20;;;;;;;;;;5005303;28;20166;-83
2022/05/13 11:21:39;;;;;;;14.27;3.20;;;;;;;;;;4999600;28;20123;-85
2022/05/13 11:27:19;;;;;;;14.98;2.90;;;;;;;;;;5007593;28;20070;-84
2022/05/13 11:29:57;;;;;;;15.90;3.15;;;;;;;;;;5007855;28;20139;-79
2022/05/13 11:32:36;;;;;;;8.48;3.22;;;;;;;;;;4991706;28;20502;-80
2022/05/13 11:35:07;;;;;;;8.45;3.50;;;;;;;;;;4998932;28;20482;-81
2022/05/13 11:37:38;;;;;;;18.25;3.28;;;;;;;;;;5014934;23;20036;-76
2022/05/13 11:40:24;;;;;;;15.23;3.65;;;;;;;;;;4998778;28;20538;-76
2022/05/13 11:45:56;;;;;;;19.60;3.22;;;;;;;;;;5002421;28;20724;-78
2022/05/13 11:48:35;;;;;;;12.32;2.97;;;;;;;;;;4989856;28;20054;-76
2022/05/13 11:51:08;;;;;;;7.60;3.00;;;;;;;;;;5009838;28;20058;-78
2022/05/13 11:53:42;;;;;;;9.23;2.78;;;;;;;;;;5007207;28;20093;-78
2022/05/13 11:56:18;;;;;;;10.90;3.10;;;;;;;;;;5007948;28;20742;-79
2022/05/13 11:58:56;;;;;;;10.63;3.83;;;;;;;;;;5021630;28;20054;-78
2022/05/13 12:01:38;;;;;;;18.50;3.60;;;;;;;;;;5023117;28;20134;-78
2022/05/13 12:04:15;;;;;;;9.35;2.88;;;;;;;;;;5015750;28;20738;-78
2022/05/13 12:06:49;;;;;;;29.02;5.35;;;;;;;;;;5020965;28;20056;-76
2022/05/13 12:09:25;;;;;;;17.02;3.72;;;;;;;;;;5001086;28;21343;-82
2022/05/13 12:11:55;;;;;;;10.35;3.13;;;;;;;;;;5073146;23;20050;-81
2022/05/13 12:14:30;;;;;;;11.98;3.47;;;;;;;;;;5027568;28;20054;-81
2022/05/13 12:17:21;;;;;;;8.45;3.03;;;;;;;;;;5025335;28;20137;-80
2022/05/13 12:19:55;;;;;;;9.25;2.58;;;;;;;;;;5008182;28;20208;-82
2022/05/13 12:22:25;;;;;;;13.85;3.08;;;;;;;;;;5026026;23;20141;-81
2022/05/13 12:28:16;;;;;;;12.38;3.20;;;;;;;;;;4991514;28;20050;-82
2022/05/13 12:30:44;;;;;;;12.52;3.70;;;;;;;;;;5036247;23;20088;-85
2022/05/13 12:33:23;;;;;;;16.42;5.45;;;;;;;;;;5053870;28;20052;-77
2022/05/13 12:39:00;;;;;;;7.30;4.18;;;;;;;;;;5050968;28;20167;-77
2022/05/13 12:41:39;;;;;;;12.75;4.38;;;;;;;;;;5052731;28;20501;-76
2022/05/13 12:44:24;;;;;;;14.77;4.28;;;;;;;;;;5042019;28;20053;-77
2022/05/13 12:49:57;;;;;;;11.80;8.10;;;;;;;;;;5020135;28;20792;-75
2022/05/13 12:52:27;;;;;;;12.77;4.75;;;;;;;;;;5017676;28;20759;-78
2022/05/13 12:54:59;;;;;;;;;;;;;;;;;;5048857;28;20049;-79
2022/05/13 12:57:35;;;;;;;8.27;4.10;;;;;;;;;;5024559;28;19932;-78
2022/05/13 13:00:08;;;;;;;10.82;3.10;;;;;;;;;;5026360;28;20054;-78
2022/05/13 13:02:35;;;;;;;10.55;3.25;;;;;;;;;;5025117;28;20054;-80
2022/05/13 13:05:05;;;;;;;9.63;2.85;;;;;;;;;;5007666;28;20085;-80
2022/05/13 13:07:35;;;;;;;7.40;3.15;;;;;;;;;;5029189;28;20474;-80
2022/05/13 13:10:02;;;;;;;12.27;3.80;;;;;;;;;;5007574;28;20500;-80
2022/05/13 13:12:36;;;;;;;11.40;3.58;;;;;;;;;;5024005;28;20457;-79
2022/05/13 13:15:29;;;;;;;10.20;3.45;;;;;;;;;;5008751;28;20056;-80
2022/05/13 13:18:01;;;;;;;10.40;3.67;;;;;;;;;;5030386;28;20053;-79
2022/05/13 13:20:30;;;;;;;10.48;3.85;;;;;;;;;;5012267;28;20713;-79
2022/05/13 13:23:01;;;;;;;8.88;3.22;;;;;;;;;;5010791;28;20046;-77
2022/05/13 13:25:34;;;;;;;15.63;2.90;;;;;;;;;;5027061;28;20586;-77
2022/05/13 13:28:02;;;;;;;3.90;1.65;;;;;;;;;;5024898;28;20456;-80
2022/05/13 13:30:30;;;;;;;9.02;2.15;;;;;;;;;;5033651;28;20085;-78
2022/05/13 13:33:06;;;;;;;5.80;2.10;;;;;;;;;;5008023;28;20056;-83
2022/05/13 13:35:44;;;;;;;9.48;2.67;;;;;;;;;;5006906;28;20055;-82
2022/05/13 13:38:13;;;;;;;6.50;1.90;;;;;;;;;;5029503;28;20496;-81
2022/05/13 13:40:43;;;;;;;9.98;2.30;;;;;;;;;;5008327;28;20432;-82
2022/05/13 13:43:24;;;;;;;6.05;2.97;;;;;;;;;;5010171;28;20052;-82
2022/05/13 13:45:53;;;;;;;7.25;2.75;;;;;;;;;;5007624;28;20104;-82
2022/05/13 13:48:32;;;;;;;8.18;2.70;;;;;;;;;;5012875;28;20045;-82
2022/05/13 13:51:00;;;;;;;9.52;3.05;;;;;;;;;;5035262;23;20053;-83
2022/05/13 13:53:32;;;;;;;8.20;3.08;;;;;;;;;;5049599;28;20480;-82
2022/05/13 13:56:08;;;;;;;8.68;3.17;;;;;;;;;;5047260;28;20465;-83
2022/05/13 13:58:41;;;;;;;34.22;6.65;;;;;;;;;;5041609;28;20837;-83
2022/05/13 14:01:10;;;;;;;29.52;4.97;;;;;;;;;;5058789;28;20037;-82
2022/05/13 14:03:38;;;;;;;44.28;6.57;;;;;;;;;;5042467;28;20045;-81
2022/05/13 14:06:06;;;;;;;14.23;3.90;;;;;;;;;;5046811;28;20745;-79
2022/05/13 14:11:46;;;;;;;209.82;48.10;;;;;;;;;;5051145;23;20572;-80
2022/05/13 14:14:33;;;;;;;350.40;49.42;;;;;;;;;;5009509;28;20163;-80
2022/05/13 14:17:03;;;;;;;9.30;3.10;;;;;;;;;;5011709;28;20528;-83
2022/05/13 14:19:36;;;;;;;21.45;3.28;;;;;;;;;;5007444;28;20059;-81
2022/05/13 14:22:04;;;;;;;8.82;2.83;;;;;;;;;;5009354;28;20065;-84
2022/05/13 14:24:36;;;;;;;13.27;2.78;;;;;;;;;;5009317;28;20498;-85
2022/05/13 14:27:10;;;;;;;6.22;2.67;;;;;;;;;;5019717;28;20130;-81
2022/05/13 14:29:37;;;;;;;27.15;4.68;;;;;;;;;;5011095;28;20051;-84
2022/05/13 14:32:09;;;;;;;15.52;2.85;;;;;;;;;;5026257;28;20123;-84
2022/05/13 14:34:37;;;;;;;6.93;2.00;;;;;;;;;;5013196;28;20474;-83
2022/05/13 14:37:06;;;;;;;18.92;1.77;;;;;;;;;;5012499;28;20049;-83
2022/05/13 14:39:51;;;;;;;8.65;2.15;;;;;;;;;;5030084;28;20076;-82
2022/05/13 14:42:39;;;;;;;3.10;1.33;;;;;;;;;;5027518;28;20069;-82
2022/05/13 14:45:32;;;;;;;8.95;2.40;;;;;;;;;;5012548;28;20053;-79
2022/05/13 14:48:26;;;;;;;6.00;1.52;;;;;;;;;;5028352;28;20057;-80
2022/05/13 14:50:57;;;;;;;4.72;1.70;;;;;;;;;;5008574;28;20142;-77
2022/05/13 14:53:25;;;;;;;8.20;2.00;;;;;;;;;;5022414;28;20741;-79
2022/05/13 14:55:56;;;;;;;8.60;1.75;;;;;;;;;;5022231;28;20138;-77
2022/05/13 14:58:31;;;;;;;11.00;2.78;;;;;;;;;;5016013;28;20087;-77
2022/05/13 15:01:00;;;;;;;5.30;1.60;;;;;;;;;;5016965;28;20049;-76
2022/05/13 15:03:32;;;;;;;7.53;1.80;;;;;;;;;;5017730;28;20670;-75
2022/05/13 15:06:15;;;;;;;4.88;1.55;;;;;;;;;;5021092;28;20188;-76
2022/05/13 15:08:52;;;;;;;6.10;1.40;;;;;;;;;;5019268;28;20073;-81
2022/05/13 15:11:21;;;;;;;15.05;3.55;;;;;;;;;;5004884;28;20124;-76
2022/05/13 15:13:51;;;;;;;9.23;1.73;;;;;;;;;;5008656;28;20060;-78
2022/05/13 15:16:22;;;;;;;8.25;2.17;;;;;;;;;;4998373;28;20509;-77
2022/05/13 15:18:50;;;;;;;8.48;1.58;;;;;;;;;;4998967;28;20060;-78
2022/05/13 15:21:17;;;;;;;5.63;1.20;;;;;;;;;;5025756;28;20136;-76
2022/05/13 15:23:44;;;;;;;7.30;1.65;;;;;;;;;;5030791;28;20055;-74
2022/05/13 15:26:13;;;;;;;5.45;1.20;;;;;;;;;;5016549;28;20104;-75
2022/05/13 15:28:43;;;;;;;5.93;1.30;;;;;;;;;;5019525;28;20080;-74
2022/05/13 15:31:11;;;;;;;5.72;1.50;;;;;;;;;;5024566;28;20151;-76
2022/05/13 15:33:38;;;;;;;5.18;1.30;;;;;;;;;;5027470;28;20053;-75
2022/05/13 15:36:06;;;;;;;9.50;1.63;;;;;;;;;;5010470;28;20081;-75
2022/05/13 15:38:34;;;;;;;9.88;1.45;;;;;;;;;;5024677;28;20120;-75
2022/05/13 15:41:01;;;;;;;9.20;1.20;;;;;;;;;;5009273;28;20080;-75
2022/05/13 15:43:28;;;;;;;5.15;1.30;;;;;;;;;;5009071;28;20128;-75